sensor_id;sensor_type;location;lat;lon;timestamp;pressure;altitude;pressure_sealevel;temperature;humidity
51123;BME280;37162;41.724;13.346;2023-09-08T00:02:05;96785.72;;;23.85;56.64
51123;BME280;37162;41.724;13.346;2023-09-08T00:04:30;96787.38;;;23.86;56.55
51123;BME280;37162;41.724;13.346;2023-09-08T00:06:56;96781.41;;;23.79;56.27
51123;BME280;37162;41.724;13.346;2023-09-08T00:09:21;96797.41;;;23.85;56.19
51123;BME280;37162;41.724;13.346;2023-09-08T00:11:46;96796.59;;;23.85;56.37
51123;BME280;37162;41.724;13.346;2023-09-08T00:14:12;96791.44;;;23.83;55.90
51123;BME280;37162;41.724;13.346;2023-09-08T00:16:37;96783.59;;;23.82;56.07
51123;BME280;37162;41.724;13.346;2023-09-08T00:19:04;96789.81;;;23.82;56.29
51123;BME280;37162;41.724;13.346;2023-09-08T00:21:30;96788.72;;;23.83;56.03
51123;BME280;37162;41.724;13.346;2023-09-08T00:23:55;96767.59;;;23.75;56.22
51123;BME280;37162;41.724;13.346;2023-09-08T00:26:21;96785.22;;;23.83;56.06
51123;BME280;37162;41.724;13.346;2023-09-08T00:28:47;96777.88;;;23.83;55.88
51123;BME280;37162;41.724;13.346;2023-09-08T00:31:13;96786.00;;;23.83;56.28
51123;BME280;37162;41.724;13.346;2023-09-08T00:33:39;96780.59;;;23.83;56.28
51123;BME280;37162;41.724;13.346;2023-09-08T00:36:06;96778.97;;;23.82;56.21
51123;BME280;37162;41.724;13.346;2023-09-08T00:38:31;96785.22;;;23.83;55.92
51123;BME280;37162;41.724;13.346;2023-09-08T00:40:57;96784.41;;;23.82;56.01
51123;BME280;37162;41.724;13.346;2023-09-08T00:43:22;96788.22;;;23.81;56.18
51123;BME280;37162;41.724;13.346;2023-09-08T00:45:48;96781.97;;;23.76;55.90
51123;BME280;37162;41.724;13.346;2023-09-08T00:48:13;96787.41;;;23.81;55.90
51123;BME280;37162;41.724;13.346;2023-09-08T00:50:39;96774.66;;;23.76;56.09
51123;BME280;37162;41.724;13.346;2023-09-08T00:53:05;96783.84;;;23.80;55.88
51123;BME280;37162;41.724;13.346;2023-09-08T00:55:32;96788.47;;;23.80;56.18
51123;BME280;37162;41.724;13.346;2023-09-08T00:57:58;96784.13;;;23.79;55.57
51123;BME280;37162;41.724;13.346;2023-09-08T01:00:25;96781.41;;;23.79;55.87
51123;BME280;37162;41.724;13.346;2023-09-08T01:02:50;96780.91;;;23.77;55.94
51123;BME280;37162;41.724;13.346;2023-09-08T01:05:16;96782.50;;;23.78;55.99
51123;BME280;37162;41.724;13.346;2023-09-08T01:07:42;96772.47;;;23.78;56.60
51123;BME280;37162;41.724;13.346;2023-09-08T01:10:09;96780.59;;;23.78;56.25
51123;BME280;37162;41.724;13.346;2023-09-08T01:12:35;96755.13;;;23.69;56.49
51123;BME280;37162;41.724;13.346;2023-09-08T01:15:03;96773.56;;;23.77;56.39
51123;BME280;37162;41.724;13.346;2023-09-08T01:17:33;96772.75;;;23.77;56.41
51123;BME280;37162;41.724;13.346;2023-09-08T01:20:02;96760.84;;;23.73;56.27
51123;BME280;37162;41.724;13.346;2023-09-08T01:27:33;96763.00;;;23.70;56.05
51123;BME280;37162;41.724;13.346;2023-09-08T01:30:02;96776.53;;;23.76;56.05
51123;BME280;37162;41.724;13.346;2023-09-08T01:32:29;96767.59;;;23.70;56.23
51123;BME280;37162;41.724;13.346;2023-09-08T01:34:57;96770.28;;;23.75;56.50
51123;BME280;37162;41.724;13.346;2023-09-08T01:37:24;96761.38;;;23.69;56.18
51123;BME280;37162;41.724;13.346;2023-09-08T01:39:49;96762.44;;;23.74;56.47
51123;BME280;37162;41.724;13.346;2023-09-08T01:42:15;96764.88;;;23.75;56.14
51123;BME280;37162;41.724;13.346;2023-09-08T01:44:40;96769.50;;;23.75;56.56
51123;BME280;37162;41.724;13.346;2023-09-08T01:47:06;96767.59;;;23.75;56.57
51123;BME280;37162;41.724;13.346;2023-09-08T01:49:31;96754.31;;;23.68;56.38
51123;BME280;37162;41.724;13.346;2023-09-08T01:51:56;96765.97;;;23.74;56.27
51123;BME280;37162;41.724;13.346;2023-09-08T01:54:22;96774.09;;;23.74;56.29
51123;BME280;37162;41.724;13.346;2023-09-08T01:56:47;96768.69;;;23.74;56.10
51123;BME280;37162;41.724;13.346;2023-09-08T01:59:13;96756.78;;;23.65;55.95
51123;BME280;37162;41.724;13.346;2023-09-08T02:01:38;96760.53;;;23.74;56.10
51123;BME280;37162;41.724;13.346;2023-09-08T02:04:05;96766.25;;;23.73;55.74
51123;BME280;37162;41.724;13.346;2023-09-08T02:06:30;96769.78;;;23.73;55.72
51123;BME280;37162;41.724;13.346;2023-09-08T02:08:56;96764.63;;;23.71;55.67
51123;BME280;37162;41.724;13.346;2023-09-08T02:11:21;96771.69;;;23.73;55.98
51123;BME280;37162;41.724;13.346;2023-09-08T02:13:47;96768.16;;;23.72;55.95
51123;BME280;37162;41.724;13.346;2023-09-08T02:16:15;96765.44;;;23.72;55.99
51123;BME280;37162;41.724;13.346;2023-09-08T02:18:44;96763.78;;;23.71;56.23
51123;BME280;37162;41.724;13.346;2023-09-08T02:21:11;96760.28;;;23.70;56.26
51123;BME280;37162;41.724;13.346;2023-09-08T02:23:37;96760.28;;;23.70;56.14
51123;BME280;37162;41.724;13.346;2023-09-08T02:26:02;96760.56;;;23.69;56.19
51123;BME280;37162;41.724;13.346;2023-09-08T02:28:28;96751.91;;;23.67;55.92
51123;BME280;37162;41.724;13.346;2023-09-08T02:30:54;96749.44;;;23.65;56.10
51123;BME280;37162;41.724;13.346;2023-09-08T02:33:19;96754.63;;;23.67;55.96
51123;BME280;37162;41.724;13.346;2023-09-08T02:35:45;96740.50;;;23.65;55.99
51123;BME280;37162;41.724;13.346;2023-09-08T02:38:10;96754.06;;;23.65;55.49
51123;BME280;37162;41.724;13.346;2023-09-08T02:40:36;96747.03;;;23.64;55.56
51123;BME280;37162;41.724;13.346;2023-09-08T02:43:02;96753.25;;;23.64;55.39
51123;BME280;37162;41.724;13.346;2023-09-08T02:45:28;96742.09;;;23.61;55.49
51123;BME280;37162;41.724;13.346;2023-09-08T02:47:54;96732.88;;;23.57;55.35
51123;BME280;37162;41.724;13.346;2023-09-08T02:50:19;96743.72;;;23.62;55.51
51123;BME280;37162;41.724;13.346;2023-09-08T02:52:44;96751.59;;;23.63;55.43
51123;BME280;37162;41.724;13.346;2023-09-08T02:55:10;96734.78;;;23.56;55.82
51123;BME280;37162;41.724;13.346;2023-09-08T02:57:37;96755.16;;;23.64;55.72
51123;BME280;37162;41.724;13.346;2023-09-08T03:00:03;96738.88;;;23.59;55.88
51123;BME280;37162;41.724;13.346;2023-09-08T03:02:30;96749.72;;;23.64;55.78
51123;BME280;37162;41.724;13.346;2023-09-08T03:04:56;96748.09;;;23.63;55.39
51123;BME280;37162;41.724;13.346;2023-09-08T03:07:21;96742.66;;;23.63;55.52
51123;BME280;37162;41.724;13.346;2023-09-08T03:09:46;96741.00;;;23.62;55.18
51123;BME280;37162;41.724;13.346;2023-09-08T03:12:12;96738.28;;;23.62;55.46
51123;BME280;37162;41.724;13.346;2023-09-08T03:14:37;96733.97;;;23.61;55.40
51123;BME280;37162;41.724;13.346;2023-09-08T03:17:03;96728.31;;;23.57;55.43
51123;BME280;37162;41.724;13.346;2023-09-08T03:19:29;96738.28;;;23.62;55.44
51123;BME280;37162;41.724;13.346;2023-09-08T03:21:54;96731.25;;;23.61;55.58
51123;BME280;37162;41.724;13.346;2023-09-08T03:24:19;96719.34;;;23.52;55.62
51123;BME280;37162;41.724;13.346;2023-09-08T03:26:45;96731.25;;;23.61;55.76
51123;BME280;37162;41.724;13.346;2023-09-08T03:29:10;96733.97;;;23.61;55.99
51123;BME280;37162;41.724;13.346;2023-09-08T03:31:36;96726.63;;;23.61;55.86
51123;BME280;37162;41.724;13.346;2023-09-08T03:34:01;96721.50;;;23.60;56.32
51123;BME280;37162;41.724;13.346;2023-09-08T03:36:27;96727.44;;;23.62;55.98
51123;BME280;37162;41.724;13.346;2023-09-08T03:38:52;96736.41;;;23.62;56.07
51123;BME280;37162;41.724;13.346;2023-09-08T03:41:18;96720.16;;;23.57;55.82
51123;BME280;37162;41.724;13.346;2023-09-08T03:43:43;96707.69;;;23.51;56.31
51123;BME280;37162;41.724;13.346;2023-09-08T03:46:09;96725.56;;;23.62;56.24
51123;BME280;37162;41.724;13.346;2023-09-08T03:48:34;96721.78;;;23.63;55.83
51123;BME280;37162;41.724;13.346;2023-09-08T03:50:59;96707.44;;;23.53;55.94
51123;BME280;37162;41.724;13.346;2023-09-08T03:53:25;96718.50;;;23.61;55.94
51123;BME280;37162;41.724;13.346;2023-09-08T03:55:51;96712.03;;;23.57;55.98
51123;BME280;37162;41.724;13.346;2023-09-08T03:58:16;96702.81;;;23.53;55.78
51123;BME280;37162;41.724;13.346;2023-09-08T04:00:42;96709.84;;;23.59;56.12
51123;BME280;37162;41.724;13.346;2023-09-08T04:03:08;96688.44;;;23.53;55.82
51123;BME280;37162;41.724;13.346;2023-09-08T04:05:33;96705.75;;;23.62;56.21
51123;BME280;37162;41.724;13.346;2023-09-08T04:07:59;96708.47;;;23.62;55.94
51123;BME280;37162;41.724;13.346;2023-09-08T04:10:25;96702.00;;;23.58;56.39
51123;BME280;37162;41.724;13.346;2023-09-08T04:12:50;96699.00;;;23.54;56.16
51123;BME280;37162;41.724;13.346;2023-09-08T04:15:16;96698.44;;;23.62;55.94
51123;BME280;37162;41.724;13.346;2023-09-08T04:17:41;96703.03;;;23.62;56.11
51123;BME280;37162;41.724;13.346;2023-09-08T04:20:07;96703.03;;;23.62;55.58
51123;BME280;37162;41.724;13.346;2023-09-08T04:22:35;96693.28;;;23.61;55.83
51123;BME280;37162;41.724;13.346;2023-09-08T04:25:01;96677.59;;;23.53;55.74
51123;BME280;37162;41.724;13.346;2023-09-08T04:27:26;96698.72;;;23.61;55.58
51123;BME280;37162;41.724;13.346;2023-09-08T04:29:52;96692.47;;;23.60;55.48
51123;BME280;37162;41.724;13.346;2023-09-08T04:32:17;96688.97;;;23.55;55.80
51123;BME280;37162;41.724;13.346;2023-09-08T04:34:43;96699.50;;;23.61;55.74
51123;BME280;37162;41.724;13.346;2023-09-08T04:37:09;96699.50;;;23.61;55.92
51123;BME280;37162;41.724;13.346;2023-09-08T04:39:35;96700.31;;;23.62;56.01
51123;BME280;37162;41.724;13.346;2023-09-08T04:42:02;96694.66;;;23.58;55.90
51123;BME280;37162;41.724;13.346;2023-09-08T04:44:28;96694.09;;;23.61;56.28
51123;BME280;37162;41.724;13.346;2023-09-08T04:46:54;96696.28;;;23.59;56.37
51123;BME280;37162;41.724;13.346;2023-09-08T04:49:20;96695.75;;;23.57;56.10
51123;BME280;37162;41.724;13.346;2023-09-08T04:51:45;96703.88;;;23.62;56.13
51123;BME280;37162;41.724;13.346;2023-09-08T04:54:11;96710.38;;;23.61;56.18
51123;BME280;37162;41.724;13.346;2023-09-08T04:56:38;96700.09;;;23.53;55.74
51123;BME280;37162;41.724;13.346;2023-09-08T04:59:04;96715.78;;;23.61;56.00
51123;BME280;37162;41.724;13.346;2023-09-08T05:01:30;96721.50;;;23.60;55.48
51123;BME280;37162;41.724;13.346;2023-09-08T05:04:00;96726.94;;;23.55;55.27
51123;BME280;37162;41.724;13.346;2023-09-08T05:06:26;96731.53;;;23.59;55.51
51123;BME280;37162;41.724;13.346;2023-09-08T05:08:51;96728.28;;;23.52;55.15
51123;BME280;37162;41.724;13.346;2023-09-08T05:11:17;96715.03;;;23.45;55.21
51123;BME280;37162;41.724;13.346;2023-09-08T05:13:44;96741.03;;;23.57;55.21
51123;BME280;37162;41.724;13.346;2023-09-08T05:16:09;96744.03;;;23.55;55.17
51123;BME280;37162;41.724;13.346;2023-09-08T05:18:39;96740.22;;;23.56;55.35
51123;BME280;37162;41.724;13.346;2023-09-08T05:21:04;96737.53;;;23.51;55.37
51123;BME280;37162;41.724;13.346;2023-09-08T05:23:30;96723.19;;;23.45;55.37
51123;BME280;37162;41.724;13.346;2023-09-08T05:25:55;96751.34;;;23.55;55.38
51123;BME280;37162;41.724;13.346;2023-09-08T05:28:21;96744.84;;;23.56;55.30
51123;BME280;37162;41.724;13.346;2023-09-08T05:30:46;96742.13;;;23.56;55.06
51123;BME280;37162;41.724;13.346;2023-09-08T05:33:12;96738.06;;;23.53;55.21
51123;BME280;37162;41.724;13.346;2023-09-08T05:35:37;96745.66;;;23.51;55.28
51123;BME280;37162;41.724;13.346;2023-09-08T05:38:03;96747.28;;;23.57;55.17
51123;BME280;37162;41.724;13.346;2023-09-08T05:40:28;96748.34;;;23.56;54.88
51123;BME280;37162;41.724;13.346;2023-09-08T05:42:54;96745.41;;;23.53;54.90
51123;BME280;37162;41.724;13.346;2023-09-08T05:45:19;96748.09;;;23.58;54.64
51123;BME280;37162;41.724;13.346;2023-09-08T05:47:45;96733.19;;;23.50;54.91
51123;BME280;37162;41.724;13.346;2023-09-08T05:50:10;96751.63;;;23.58;54.63
51123;BME280;37162;41.724;13.346;2023-09-08T05:52:36;96750.53;;;23.59;54.45
51123;BME280;37162;41.724;13.346;2023-09-08T05:55:02;96745.38;;;23.58;54.70
51123;BME280;37162;41.724;13.346;2023-09-08T05:57:27;96747.53;;;23.61;54.74
51123;BME280;37162;41.724;13.346;2023-09-08T05:59:52;96743.72;;;23.62;54.36
51123;BME280;37162;41.724;13.346;2023-09-08T06:02:18;96748.09;;;23.63;54.11
51123;BME280;37162;41.724;13.346;2023-09-08T06:04:43;96749.16;;;23.62;54.23
51123;BME280;37162;41.724;13.346;2023-09-08T06:07:09;96728.28;;;23.52;54.05
51123;BME280;37162;41.724;13.346;2023-09-08T06:09:34;96742.66;;;23.63;54.19
51123;BME280;37162;41.724;13.346;2023-09-08T06:12:00;96737.78;;;23.60;53.16
51123;BME280;37162;41.724;13.346;2023-09-08T06:14:25;96740.75;;;23.63;53.21
51123;BME280;37162;41.724;13.346;2023-09-08T06:16:51;96741.31;;;23.65;52.66
51123;BME280;37162;41.724;13.346;2023-09-08T06:19:16;96726.41;;;23.58;52.99
51123;BME280;37162;41.724;13.346;2023-09-08T06:21:42;96742.41;;;23.64;52.39
51123;BME280;37162;41.724;13.346;2023-09-08T06:24:07;96749.44;;;23.65;51.80
51123;BME280;37162;41.724;13.346;2023-09-08T06:26:33;96743.22;;;23.65;52.27
51123;BME280;37162;41.724;13.346;2023-09-08T06:28:58;96754.31;;;23.68;52.04
51123;BME280;37162;41.724;13.346;2023-09-08T06:31:24;96749.72;;;23.69;51.91
51123;BME280;37162;41.724;13.346;2023-09-08T06:33:49;96750.22;;;23.71;51.77
51123;BME280;37162;41.724;13.346;2023-09-08T06:36:18;96747.25;;;23.73;51.45
51123;BME280;37162;41.724;13.346;2023-09-08T06:38:43;96748.06;;;23.73;51.01
51123;BME280;37162;41.724;13.346;2023-09-08T06:41:12;96751.84;;;23.77;52.01
51123;BME280;37162;41.724;13.346;2023-09-08T06:43:37;96751.56;;;23.79;51.98
51123;BME280;37162;41.724;13.346;2023-09-08T06:46:03;96749.13;;;23.82;52.71
51123;BME280;37162;41.724;13.346;2023-09-08T06:48:29;96741.78;;;23.83;53.03
51123;BME280;37162;41.724;13.346;2023-09-08T06:50:55;96738.28;;;23.82;54.09
51123;BME280;37162;41.724;13.346;2023-09-08T06:53:22;96736.09;;;23.79;52.84
51123;BME280;37162;41.724;13.346;2023-09-08T06:55:48;96741.78;;;23.88;53.76
51123;BME280;37162;41.724;13.346;2023-09-08T06:58:13;96741.22;;;23.91;55.14
51123;BME280;37162;41.724;13.346;2023-09-08T07:00:41;96736.59;;;23.91;55.51
51123;BME280;37162;41.724;13.346;2023-09-08T07:03:06;96731.47;;;23.85;53.97
51123;BME280;37162;41.724;13.346;2023-09-08T07:05:33;96730.09;;;23.87;55.15
51123;BME280;37162;41.724;13.346;2023-09-08T07:07:59;96737.94;;;23.94;55.18
51123;BME280;37162;41.724;13.346;2023-09-08T07:10:24;96738.75;;;23.94;54.89
51123;BME280;37162;41.724;13.346;2023-09-08T07:12:50;96739.56;;;23.90;53.74
51123;BME280;37162;41.724;13.346;2023-09-08T07:15:15;96747.97;;;23.98;55.69
51123;BME280;37162;41.724;13.346;2023-09-08T07:17:41;96744.97;;;24.00;55.83
51123;BME280;37162;41.724;13.346;2023-09-08T07:20:07;96751.22;;;24.01;55.87
51123;BME280;37162;41.724;13.346;2023-09-08T07:22:33;96744.69;;;24.02;56.13
51123;BME280;37162;41.724;13.346;2023-09-08T07:24:58;96755.00;;;24.05;55.91
51123;BME280;37162;41.724;13.346;2023-09-08T07:27:24;96750.38;;;24.05;55.72
51123;BME280;37162;41.724;13.346;2023-09-08T07:29:49;96752.03;;;24.01;55.78
51123;BME280;37162;41.724;13.346;2023-09-08T07:32:16;96763.38;;;24.08;55.88
51123;BME280;37162;41.724;13.346;2023-09-08T07:34:41;96755.78;;;24.10;55.76
51123;BME280;37162;41.724;13.346;2023-09-08T07:37:07;96761.72;;;24.12;55.85
51123;BME280;37162;41.724;13.346;2023-09-08T07:39:32;96755.78;;;24.10;56.01
51123;BME280;37162;41.724;13.346;2023-09-08T07:41:58;96772.84;;;24.16;56.22
51123;BME280;37162;41.724;13.346;2023-09-08T07:44:24;96763.09;;;24.15;56.00
51123;BME280;37162;41.724;13.346;2023-09-08T07:46:49;96756.31;;;24.12;55.98
51123;BME280;37162;41.724;13.346;2023-09-08T07:49:17;96774.19;;;24.23;55.92
51123;BME280;37162;41.724;13.346;2023-09-08T07:51:46;96778.53;;;24.25;55.96
51123;BME280;37162;41.724;13.346;2023-09-08T07:54:12;96774.41;;;24.27;56.14
51123;BME280;37162;41.724;13.346;2023-09-08T07:56:37;96770.09;;;24.26;56.05
51123;BME280;37162;41.724;13.346;2023-09-08T07:59:03;96778.50;;;24.30;56.01
51123;BME280;37162;41.724;13.346;2023-09-08T08:01:28;96776.28;;;24.32;55.76
51123;BME280;37162;41.724;13.346;2023-09-08T08:03:54;96776.03;;;24.33;56.26
51123;BME280;37162;41.724;13.346;2023-09-08T08:06:19;96785.50;;;24.36;55.99
51123;BME280;37162;41.724;13.346;2023-09-08T08:08:45;96782.56;;;24.37;56.18
51123;BME280;37162;41.724;13.346;2023-09-08T08:11:15;96776.84;;;24.34;55.97
51123;BME280;37162;41.724;13.346;2023-09-08T08:13:41;96788.22;;;24.41;55.98
51123;BME280;37162;41.724;13.346;2023-09-08T08:16:07;96793.41;;;24.42;55.89
51123;BME280;37162;41.724;13.346;2023-09-08T08:18:32;96786.88;;;24.43;55.97
51123;BME280;37162;41.724;13.346;2023-09-08T08:20:58;96784.66;;;24.45;55.40
51123;BME280;37162;41.724;13.346;2023-09-08T08:23:25;96784.38;;;24.52;53.94
51123;BME280;37162;41.724;13.346;2023-09-08T08:25:51;96783.53;;;24.57;54.98
51123;BME280;37162;41.724;13.346;2023-09-08T08:28:17;96787.56;;;24.59;55.14
51123;BME280;37162;41.724;13.346;2023-09-08T08:30:43;96785.66;;;24.60;55.44
51123;BME280;37162;41.724;13.346;2023-09-08T08:33:08;96790.03;;;24.61;55.25
51123;BME280;37162;41.724;13.346;2023-09-08T08:35:33;96780.00;;;24.56;55.18
51123;BME280;37162;41.724;13.346;2023-09-08T08:37:59;96781.28;;;24.64;54.28
51123;BME280;37162;41.724;13.346;2023-09-08T08:40:25;96774.50;;;24.66;54.69
51123;BME280;37162;41.724;13.346;2023-09-08T08:42:56;96780.41;;;24.73;54.67
51123;BME280;37162;41.724;13.346;2023-09-08T08:45:25;96771.19;;;24.69;54.94
51123;BME280;37162;41.724;13.346;2023-09-08T08:47:51;96789.09;;;24.76;54.97
51123;BME280;37162;41.724;13.346;2023-09-08T08:50:18;96794.25;;;24.77;54.95
51123;BME280;37162;41.724;13.346;2023-09-08T08:52:44;96780.41;;;24.73;54.90
51123;BME280;37162;41.724;13.346;2023-09-08T08:55:10;96781.75;;;24.76;54.72
51123;BME280;37162;41.724;13.346;2023-09-08T08:57:39;96789.88;;;24.81;54.60
51123;BME280;37162;41.724;13.346;2023-09-08T09:00:09;96775.19;;;24.82;53.41
51123;BME280;37162;41.724;13.346;2023-09-08T09:02:38;96766.47;;;24.85;52.29
51123;BME280;37162;41.724;13.346;2023-09-08T09:05:05;96777.53;;;24.99;52.63
51123;BME280;37162;41.724;13.346;2023-09-08T09:07:32;96769.63;;;24.97;53.61
51123;BME280;37162;41.724;13.346;2023-09-08T09:09:58;96760.97;;;24.95;53.89
51123;BME280;37162;41.724;13.346;2023-09-08T09:12:24;96770.69;;;25.02;54.10
51123;BME280;37162;41.724;13.346;2023-09-08T09:14:53;96776.41;;;25.00;54.37
51123;BME280;37162;41.724;13.346;2023-09-08T09:17:18;96769.56;;;25.03;54.15
51123;BME280;37162;41.724;13.346;2023-09-08T09:19:44;96763.88;;;25.04;54.25
51123;BME280;37162;41.724;13.346;2023-09-08T09:22:09;96773.66;;;25.05;54.05
51123;BME280;37162;41.724;13.346;2023-09-08T09:24:35;96769.03;;;25.06;54.19
51123;BME280;37162;41.724;13.346;2023-09-08T09:27:07;96767.69;;;25.08;54.07
51123;BME280;37162;41.724;13.346;2023-09-08T09:29:34;96779.38;;;25.09;54.20
51123;BME280;37162;41.724;13.346;2023-09-08T09:32:09;96774.16;;;25.12;54.19
51123;BME280;37162;41.724;13.346;2023-09-08T09:34:34;96764.66;;;25.10;54.12
51123;BME280;37162;41.724;13.346;2023-09-08T09:37:00;96754.31;;;25.07;54.20
51123;BME280;37162;41.724;13.346;2023-09-08T09:39:26;96765.97;;;25.17;54.07
51123;BME280;37162;41.724;13.346;2023-09-08T09:41:56;96764.88;;;25.18;53.95
51123;BME280;37162;41.724;13.346;2023-09-08T09:44:22;96767.28;;;25.20;54.26
51123;BME280;37162;41.724;13.346;2023-09-08T09:46:48;96766.50;;;25.19;53.95
51123;BME280;37162;41.724;13.346;2023-09-08T09:49:16;96761.56;;;25.21;54.06
51123;BME280;37162;41.724;13.346;2023-09-08T09:51:50;96758.84;;;25.21;53.40
51123;BME280;37162;41.724;13.346;2023-09-08T09:54:19;96750.47;;;25.18;53.88
51123;BME280;37162;41.724;13.346;2023-09-08T09:56:45;96762.91;;;25.24;54.17
51123;BME280;37162;41.724;13.346;2023-09-08T09:59:13;96748.22;;;25.25;53.90
51123;BME280;37162;41.724;13.346;2023-09-08T10:01:39;96741.72;;;25.21;53.92
51123;BME280;37162;41.724;13.346;2023-09-08T10:04:05;96735.47;;;25.20;53.38
51123;BME280;37162;41.724;13.346;2023-09-08T10:06:35;96746.25;;;25.31;53.87
51123;BME280;37162;41.724;13.346;2023-09-08T10:09:02;96745.44;;;25.30;53.90
51123;BME280;37162;41.724;13.346;2023-09-08T10:11:42;96745.69;;;25.34;53.75
51123;BME280;37162;41.724;13.346;2023-09-08T10:14:10;96744.56;;;25.35;53.87
51123;BME280;37162;41.724;13.346;2023-09-08T10:16:38;96748.09;;;25.35;53.85
51123;BME280;37162;41.724;13.346;2023-09-08T10:19:07;96747.03;;;25.36;53.77
51123;BME280;37162;41.724;13.346;2023-09-08T10:21:39;96744.00;;;25.38;53.71
51123;BME280;37162;41.724;13.346;2023-09-08T10:24:13;96738.28;;;25.39;53.79
51123;BME280;37162;41.724;13.346;2023-09-08T10:26:40;96740.72;;;25.41;53.71
51123;BME280;37162;41.724;13.346;2023-09-08T10:29:09;96736.66;;;25.38;53.75
51123;BME280;37162;41.724;13.346;2023-09-08T10:31:35;96731.47;;;25.42;53.74
51123;BME280;37162;41.724;13.346;2023-09-08T10:34:02;96730.91;;;25.40;53.55
51123;BME280;37162;41.724;13.346;2023-09-08T10:36:28;96736.03;;;25.46;53.54
51123;BME280;37162;41.724;13.346;2023-09-08T10:38:54;96725.16;;;25.46;53.41
51123;BME280;37162;41.724;13.346;2023-09-08T10:43:58;96719.22;;;25.39;53.48
51123;BME280;37162;41.724;13.346;2023-09-08T10:46:27;96723.31;;;25.42;53.76
51123;BME280;37162;41.724;13.346;2023-09-08T10:48:53;96720.56;;;25.42;53.79
51123;BME280;37162;41.724;13.346;2023-09-08T10:51:20;96720.56;;;25.42;54.16
51123;BME280;37162;41.724;13.346;2023-09-08T10:53:47;96715.13;;;25.42;53.74
51123;BME280;37162;41.724;13.346;2023-09-08T10:56:14;96717.31;;;25.40;53.84
51123;BME280;37162;41.724;13.346;2023-09-08T10:58:40;96706.22;;;25.36;53.82
51123;BME280;37162;41.724;13.346;2023-09-08T11:01:21;96711.88;;;25.40;53.89
51123;BME280;37162;41.724;13.346;2023-09-08T11:03:53;96708.09;;;25.41;53.72
51123;BME280;37162;41.724;13.346;2023-09-08T11:06:20;96692.91;;;25.35;53.81
51123;BME280;37162;41.724;13.346;2023-09-08T11:08:48;96701.53;;;25.42;53.77
51123;BME280;37162;41.724;13.346;2023-09-08T11:11:18;96699.06;;;25.45;53.71
51123;BME280;37162;41.724;13.346;2023-09-08T11:13:43;96697.94;;;25.46;53.68
51123;BME280;37162;41.724;13.346;2023-09-08T11:16:13;96706.63;;;25.48;53.76
51123;BME280;37162;41.724;13.346;2023-09-08T11:18:39;96698.16;;;25.50;53.55
51123;BME280;37162;41.724;13.346;2023-09-08T11:21:07;96703.34;;;25.52;53.74
51123;BME280;37162;41.724;13.346;2023-09-08T11:23:34;96712.00;;;25.54;53.52
51123;BME280;37162;41.724;13.346;2023-09-08T11:26:00;96701.13;;;25.54;53.43
51123;BME280;37162;41.724;13.346;2023-09-08T11:28:26;96704.66;;;25.54;53.49
51123;BME280;37162;41.724;13.346;2023-09-08T11:30:52;96695.97;;;25.52;53.86
51123;BME280;37162;41.724;13.346;2023-09-08T11:33:21;96706.50;;;25.59;53.32
51123;BME280;37162;41.724;13.346;2023-09-08T11:35:51;96692.69;;;25.55;53.34
51123;BME280;37162;41.724;13.346;2023-09-08T11:38:18;96696.16;;;25.61;53.35
51123;BME280;37162;41.724;13.346;2023-09-08T11:40:43;96705.41;;;25.60;53.40
51123;BME280;37162;41.724;13.346;2023-09-08T11:43:09;96704.31;;;25.61;53.31
51123;BME280;37162;41.724;13.346;2023-09-08T11:45:35;96699.97;;;25.60;53.40
51123;BME280;37162;41.724;13.346;2023-09-08T11:48:01;96701.34;;;25.57;53.49
51123;BME280;37162;41.724;13.346;2023-09-08T11:50:27;96692.44;;;25.52;53.57
51123;BME280;37162;41.724;13.346;2023-09-08T11:52:53;96699.81;;;25.51;53.63
51123;BME280;37162;41.724;13.346;2023-09-08T11:55:20;96695.44;;;25.50;53.77
51123;BME280;37162;41.724;13.346;2023-09-08T11:57:49;96704.44;;;25.51;53.90
51123;BME280;37162;41.724;13.346;2023-09-08T12:00:17;96695.44;;;25.50;53.79
51123;BME280;37162;41.724;13.346;2023-09-08T12:02:44;96696.53;;;25.49;53.96
51123;BME280;37162;41.724;13.346;2023-09-08T12:05:21;96694.44;;;25.46;53.71
51123;BME280;37162;41.724;13.346;2023-09-08T12:07:50;96702.84;;;25.44;53.84
51123;BME280;37162;41.724;13.346;2023-09-08T12:10:15;96696.09;;;25.42;54.06
51123;BME280;37162;41.724;13.346;2023-09-08T12:12:47;96694.75;;;25.39;53.89
51123;BME280;37162;41.724;13.346;2023-09-08T12:15:30;96695.56;;;25.40;54.05
51123;BME280;37162;41.724;13.346;2023-09-08T12:17:59;96685.78;;;25.39;53.90
51123;BME280;37162;41.724;13.346;2023-09-08T12:20:26;96684.16;;;25.38;54.33
51123;BME280;37162;41.724;13.346;2023-09-08T12:22:52;96684.16;;;25.38;54.03
51123;BME280;37162;41.724;13.346;2023-09-08T12:25:18;96687.19;;;25.36;54.28
51123;BME280;37162;41.724;13.346;2023-09-08T12:27:45;96672.06;;;25.25;54.33
51123;BME280;37162;41.724;13.346;2023-09-08T12:30:22;96682.06;;;25.30;54.36
51123;BME280;37162;41.724;13.346;2023-09-08T12:33:08;96671.81;;;25.21;54.46
51123;BME280;37162;41.724;13.346;2023-09-08T12:35:35;96675.88;;;25.24;54.77
51123;BME280;37162;41.724;13.346;2023-09-08T12:38:04;96669.94;;;25.22;54.77
51123;BME280;37162;41.724;13.346;2023-09-08T12:40:34;96670.22;;;25.20;54.67
51123;BME280;37162;41.724;13.346;2023-09-08T12:43:00;96668.34;;;25.16;54.61
51123;BME280;37162;41.724;13.346;2023-09-08T12:45:26;96665.63;;;25.16;54.74
51123;BME280;37162;41.724;13.346;2023-09-08T12:47:53;96669.47;;;25.15;54.79
51123;BME280;37162;41.724;13.346;2023-09-08T12:50:20;96666.75;;;25.15;54.71
51123;BME280;37162;41.724;13.346;2023-09-08T12:52:46;96659.75;;;25.09;54.88
51123;BME280;37162;41.724;13.346;2023-09-08T12:55:11;96655.63;;;25.11;54.93